Time;durP1;ratioP1;P1;durP2;ratioP2;P2;SDS_P1;SDS_P2;PMS_P1;PMS_P2;Temp;Humidity;BMP_temperature;BMP_pressure;BME280_temperature;BME280_humidity;BME280_pressure;Samples;Min_cycle;Max_cycle;Signal;HPM_P1;HPM_P2
2023/11/05 00:01:39;;;;;;;;;;;;;;;;;;5069893;28;19986;-67
2023/11/05 00:04:05;;;;;;;;;;;;;;;;;;5088532;28;20359;-68
2023/11/05 00:06:31;;;;;;;;;;;;;;;;;;5055144;28;20892;-68
2023/11/05 00:08:58;;;;;;;;;;;;;;;;;;5090771;28;20374;-68
2023/11/05 00:11:24;;;;;;;;;;;;;;;;;;5072156;28;19915;-69
2023/11/05 00:13:52;;;;;;;;;;;;;;;;;;5073700;28;20636;-69
2023/11/05 00:16:17;;;;;;;;;;;;;;;;;;5088452;28;20260;-69
2023/11/05 00:18:42;;;;;;;;;;;;;;;;;;5090936;28;19931;-68
2023/11/05 00:21:08;;;;;;;;;;;;;;;;;;5062031;28;21551;-69
2023/11/05 00:23:35;;;;;;;;;;;;;;;;;;5075080;28;19927;-68
2023/11/05 00:26:03;;;;;;;;;;;;;;;;;;5076729;28;19920;-68
2023/11/05 00:28:28;;;;;;;;;;;;;;;;;;5078395;28;19922;-68
2023/11/05 00:30:58;;;;;;;;;;;;;;;;;;5073490;28;19981;-68
2023/11/05 00:33:24;;;;;;;;;;;;;;;;;;5074049;28;19916;-68
2023/11/05 00:35:49;;;;;;;;;;;;;;;;;;5073244;28;19919;-68
2023/11/05 00:38:15;;;;;;;;;;;;;;;;;;5058605;28;20381;-68
2023/11/05 00:40:40;;;;;;;;;;;;;;;;;;5077702;28;19965;-68
2023/11/05 00:43:05;;;;;;;;;;;;;;;;;;5092894;28;20044;-68
2023/11/05 00:45:31;;;;;;;;;;;;;;;;;;5058272;28;19944;-68
2023/11/05 00:47:56;;;;;;;;;;;;;;;;;;5073902;28;19915;-70
2023/11/05 00:50:23;;;;;;;;;;;;;;;;;;5089115;28;20407;-68
2023/11/05 00:52:48;;;;;;;;;;;;;;;;;;5063281;28;19916;-69
2023/11/05 00:55:14;;;;;;;;;;;;;;;;;;5072665;28;19919;-68
2023/11/05 00:57:39;;;;;;;;;;;;;;;;;;5075637;28;19916;-70
2023/11/05 01:00:05;;;;;;;;;;;;;;;;;;5072944;28;21485;-69
2023/11/05 01:02:30;;;;;;;;;;;;;;;;;;5075813;28;19927;-68
2023/11/05 01:04:55;;;;;;;;;;;;;;;;;;5071082;28;21247;-68
2023/11/05 01:07:21;;;;;;;;;;;;;;;;;;5090193;28;20349;-69
2023/11/05 01:09:46;;;;;;;;;;;;;;;;;;5057729;28;19931;-69
2023/11/05 01:12:11;;;;;;;;;;;;;;;;;;5092568;28;20410;-69
2023/11/05 01:14:37;;;;;;;;;;;;;;;;;;5071014;28;19916;-69
2023/11/05 01:17:02;;;;;;;;;;;;;;;;;;5057678;28;19943;-69
2023/11/05 01:19:28;;;;;;;;;;;;;;;;;;5089465;27;19995;-69
2023/11/05 01:21:53;;;;;;;;;;;;;;;;;;5075775;28;19962;-69
2023/11/05 01:24:19;;;;;;;;;;;;;;;;;;5072813;28;19922;-69
2023/11/05 01:26:44;;;;;;;;;;;;;;;;;;5074958;28;20478;-69
2023/11/05 01:29:09;;;;;;;;;;;;;;;;;;5054360;28;20384;-69
2023/11/05 01:31:35;;;;;;;;;;;;;;;;;;5054907;28;20137;-68
2023/11/05 01:34:00;;;;;;;;;;;;;;;;;;5090778;28;19928;-73
2023/11/05 01:36:25;;;;;;;;;;;;;;;;;;5074142;28;20633;-72
2023/11/05 01:38:56;;;;;;;;;;;;;;;;;;5090641;28;19931;-73
2023/11/05 01:41:22;;;;;;;;;;;;;;;;;;5070539;28;19919;-71
2023/11/05 01:43:47;;;;;;;;;;;;;;;;;;5073723;28;19971;-72
2023/11/05 01:46:12;;;;;;;;;;;;;;;;;;5056990;28;20344;-72
2023/11/05 01:48:37;;;;;;;;;;;;;;;;;;5071243;28;19916;-72
2023/11/05 01:51:03;;;;;;;;;;;;;;;;;;5071478;28;20011;-72
2023/11/05 01:53:28;;;;;;;;;;;;;;;;;;5087340;28;19926;-73
2023/11/05 01:55:57;;;;;;;;;;;;;;;;;;5084757;28;20275;-72
2023/11/05 01:58:22;;;;;;;;;;;;;;;;;;5054475;28;20356;-72
2023/11/05 02:00:48;;;;;;;;;;;;;;;;;;5055319;28;19924;-72
2023/11/05 02:03:14;;;;;;;;;;;;;;;;;;5090782;28;19976;-72
2023/11/05 02:05:39;;;;;;;;;;;;;;;;;;5088203;27;19926;-72
2023/11/05 02:08:05;;;;;;;;;;;;;;;;;;5074764;28;20251;-72
2023/11/05 02:10:33;;;;;;;;;;;;;;;;;;5057165;28;19930;-72
2023/11/05 02:12:58;;;;;;;;;;;;;;;;;;5073909;28;20562;-73
2023/11/05 02:15:26;;;;;;;;;;;;;;;;;;5054316;28;20363;-73
2023/11/05 02:17:51;;;;;;;;;;;;;;;;;;5070801;28;19931;-73
2023/11/05 02:20:17;;;;;;;;;;;;;;;;;;5084569;28;19962;-74
2023/11/05 02:22:44;;;;;;;;;;;;;;;;;;5074157;28;21459;-73
2023/11/05 02:25:10;;;;;;;;;;;;;;;;;;5055414;28;19994;-72
2023/11/05 02:27:35;;;;;;;;;;;;;;;;;;5055200;28;20477;-72
2023/11/05 02:30:01;;;;;;;;;;;;;;;;;;5073843;28;20421;-72
2023/11/05 02:32:26;;;;;;;;;;;;;;;;;;5074101;28;19947;-71
2023/11/05 02:34:54;;;;;;;;;;;;;;;;;;5087106;28;20285;-73
2023/11/05 02:37:19;;;;;;;;;;;;;;;;;;5056325;28;19915;-73
2023/11/05 02:39:44;;;;;;;;;;;;;;;;;;5072213;28;19920;-72
2023/11/05 02:42:10;;;;;;;;;;;;;;;;;;5070678;28;19935;-74
2023/11/05 02:44:38;;;;;;;;;;;;;;;;;;5071391;28;20937;-73
2023/11/05 02:47:03;;;;;;;;;;;;;;;;;;5068414;28;19920;-73
2023/11/05 02:49:29;;;;;;;;;;;;;;;;;;5067921;28;20535;-74
2023/11/05 02:51:54;;;;;;;;;;;;;;;;;;5053316;28;20341;-74
2023/11/05 02:54:20;;;;;;;;;;;;;;;;;;5072495;28;20200;-73
2023/11/05 02:56:48;;;;;;;;;;;;;;;;;;5071621;28;19922;-74
2023/11/05 02:59:21;;;;;;;;;;;;;;;;;;5058335;28;19966;-74
2023/11/05 03:01:49;;;;;;;;;;;;;;;;;;5070997;28;19924;-73
2023/11/05 03:04:16;;;;;;;;;;;;;;;;;;5068848;28;19955;-73
2023/11/05 03:06:42;;;;;;;;;;;;;;;;;;5060316;28;19944;-74
2023/11/05 03:09:07;;;;;;;;;;;;;;;;;;5069766;28;20186;-74
2023/11/05 03:11:32;;;;;;;;;;;;;;;;;;5071349;28;20044;-73
2023/11/05 03:13:58;;;;;;;;;;;;;;;;;;5072934;28;19955;-77
2023/11/05 03:16:26;;;;;;;;;;;;;;;;;;5070840;28;21618;-73
2023/11/05 03:18:54;;;;;;;;;;;;;;;;;;5089352;27;19920;-73
2023/11/05 03:21:25;;;;;;;;;;;;;;;;;;5054617;28;20743;-74
2023/11/05 03:23:53;;;;;;;;;;;;;;;;;;5052800;28;20513;-74
2023/11/05 03:26:21;;;;;;;;;;;;;;;;;;5051793;28;19919;-74
2023/11/05 03:28:46;;;;;;;;;;;;;;;;;;5073850;28;20616;-74
2023/11/05 03:31:13;;;;;;;;;;;;;;;;;;5091138;28;19981;-73
2023/11/05 03:33:42;;;;;;;;;;;;;;;;;;5088958;28;19925;-73
2023/11/05 03:36:10;;;;;;;;;;;;;;;;;;5055145;28;20262;-74
2023/11/05 03:38:38;;;;;;;;;;;;;;;;;;5057259;28;19928;-75
2023/11/05 03:41:03;;;;;;;;;;;;;;;;;;5071758;28;20362;-75
2023/11/05 03:43:28;;;;;;;;;;;;;;;;;;5072112;28;19947;-74
2023/11/05 03:45:59;;;;;;;;;;;;;;;;;;5072102;28;20354;-74
2023/11/05 03:48:27;;;;;;;;;;;;;;;;;;5091072;28;19920;-73
2023/11/05 03:50:54;;;;;;;;;;;;;;;;;;5057508;28;20410;-74
2023/11/05 03:53:25;;;;;;;;;;;;;;;;;;5057616;28;20176;-74
2023/11/05 03:55:50;;;;;;;;;;;;;;;;;;5093224;28;20051;-73
2023/11/05 03:58:15;;;;;;;;;;;;;;;;;;5077700;28;19916;-73
2023/11/05 04:00:41;;;;;;;;;;;;;;;;;;5073846;28;19915;-73
2023/11/05 04:03:06;;;;;;;;;;;;;;;;;;5076030;28;20950;-73
2023/11/05 04:05:34;;;;;;;;;;;;;;;;;;5095027;28;19922;-74
2023/11/05 04:08:00;;;;;;;;;;;;;;;;;;5092325;28;19919;-73
2023/11/05 04:10:28;;;;;;;;;;;;;;;;;;5077439;28;19920;-72
2023/11/05 04:12:53;;;;;;;;;;;;;;;;;;5060544;28;20398;-73
2023/11/05 04:15:18;;;;;;;;;;;;;;;;;;5093614;28;19928;-73
2023/11/05 04:17:44;;;;;;;;;;;;;;;;;;5060472;28;19919;-72
2023/11/05 04:20:11;;;;;;;;;;;;;;;;;;5076521;28;19920;-76
2023/11/05 04:22:37;;;;;;;;;;;;;;;;;;5077228;28;19923;-73
2023/11/05 04:25:05;;;;;;;;;;;;;;;;;;5057001;28;19919;-72
2023/11/05 04:27:30;;;;;;;;;;;;;;;;;;5078535;28;19985;-73
2023/11/05 04:30:12;;;;;;;;;;;;;;;;;;5077696;28;19922;-72
2023/11/05 04:32:37;;;;;;;;;;;;;;;;;;5095120;28;19968;-72
2023/11/05 04:35:05;;;;;;;;;;;;;;;;;;5073244;28;20364;-73
2023/11/05 04:37:32;;;;;;;;;;;;;;;;;;5092030;28;19915;-72
2023/11/05 04:39:59;;;;;;;;;;;;;;;;;;5076568;28;20080;-72
2023/11/05 04:42:27;;;;;;;;;;;;;;;;;;5089552;27;21036;-72
2023/11/05 04:44:58;;;;;;;;;;;;;;;;;;5078215;28;19920;-72
2023/11/05 04:47:26;;;;;;;;;;;;;;;;;;5071780;28;20010;-73
2023/11/05 04:49:54;;;;;;;;;;;;;;;;;;5073005;28;19922;-72
2023/11/05 04:52:19;;;;;;;;;;;;;;;;;;5076373;28;19923;-72
2023/11/05 04:54:47;;;;;;;;;;;;;;;;;;5058737;28;19920;-71
2023/11/05 04:57:15;;;;;;;;;;;;;;;;;;5077337;28;19919;-72
2023/11/05 04:59:41;;;;;;;;;;;;;;;;;;5092911;28;20275;-73
2023/11/05 05:02:08;;;;;;;;;;;;;;;;;;5089391;28;21618;-71
2023/11/05 05:04:36;;;;;;;;;;;;;;;;;;5060592;28;21528;-72
2023/11/05 05:07:02;;;;;;;;;;;;;;;;;;5074413;28;19935;-72
2023/11/05 05:09:28;;;;;;;;;;;;;;;;;;5072484;28;19915;-72
2023/11/05 05:11:57;;;;;;;;;;;;;;;;;;5076598;28;19969;-71
2023/11/05 05:14:23;;;;;;;;;;;;;;;;;;5074745;28;19916;-72
2023/11/05 05:16:48;;;;;;;;;;;;;;;;;;5077168;28;20059;-72
2023/11/05 05:19:13;;;;;;;;;;;;;;;;;;5075044;28;19931;-71
2023/11/05 05:21:41;;;;;;;;;;;;;;;;;;5074203;28;20664;-72
2023/11/05 05:24:06;;;;;;;;;;;;;;;;;;5074914;28;19974;-72
2023/11/05 05:26:32;;;;;;;;;;;;;;;;;;5074019;28;19958;-72
2023/11/05 05:28:59;;;;;;;;;;;;;;;;;;5092259;28;19928;-72
2023/11/05 05:31:25;;;;;;;;;;;;;;;;;;5057875;28;19919;-71
2023/11/05 05:33:50;;;;;;;;;;;;;;;;;;5090951;28;20687;-74
2023/11/05 05:36:16;;;;;;;;;;;;;;;;;;5071483;28;19975;-73
2023/11/05 05:38:42;;;;;;;;;;;;;;;;;;5057787;28;19923;-73
2023/11/05 05:41:07;;;;;;;;;;;;;;;;;;5057794;28;19972;-71
2023/11/05 05:43:33;;;;;;;;;;;;;;;;;;5076572;28;19931;-71
2023/11/05 05:45:58;;;;;;;;;;;;;;;;;;5073098;28;19961;-71
2023/11/05 05:48:24;;;;;;;;;;;;;;;;;;5076291;28;19916;-72
2023/11/05 05:50:49;;;;;;;;;;;;;;;;;;5090878;28;19969;-71
2023/11/05 05:53:15;;;;;;;;;;;;;;;;;;5092088;28;20046;-71
2023/11/05 05:55:40;;;;;;;;;;;;;;;;;;5059782;28;19919;-71
2023/11/05 05:58:06;;;;;;;;;;;;;;;;;;5057351;28;20472;-71
2023/11/05 06:00:31;;;;;;;;;;;;;;;;;;5091626;28;20367;-72
2023/11/05 06:02:56;;;;;;;;;;;;;;;;;;5074787;28;20101;-71
2023/11/05 06:05:22;;;;;;;;;;;;;;;;;;5057755;28;20354;-71
2023/11/05 06:07:49;;;;;;;;;;;;;;;;;;5089274;28;19920;-71
2023/11/05 06:10:15;;;;;;;;;;;;;;;;;;5091770;28;19920;-71
2023/11/05 06:12:42;;;;;;;;;;;;;;;;;;5073427;28;19916;-71
2023/11/05 06:15:09;;;;;;;;;;;;;;;;;;5073631;28;20312;-72
2023/11/05 06:17:34;;;;;;;;;;;;;;;;;;5075728;28;19920;-71
2023/11/05 06:20:00;;;;;;;;;;;;;;;;;;5083648;28;20652;-71
2023/11/05 06:22:25;;;;;;;;;;;;;;;;;;5073250;28;20082;-70
2023/11/05 06:24:51;;;;;;;;;;;;;;;;;;5072941;28;20657;-71
2023/11/05 06:27:16;;;;;;;;;;;;;;;;;;5074424;28;19926;-71
2023/11/05 06:29:42;;;;;;;;;;;;;;;;;;5072123;28;19931;-71
2023/11/05 06:32:10;;;;;;;;;;;;;;;;;;5089387;28;19919;-70
2023/11/05 06:34:35;;;;;;;;;;;;;;;;;;5076172;28;20319;-70
2023/11/05 06:37:01;;;;;;;;;;;;;;;;;;5088019;28;20305;-70
2023/11/05 06:39:30;;;;;;;;;;;;;;;;;;5052436;28;20365;-70
2023/11/05 06:41:55;;;;;;;;;;;;;;;;;;5089455;28;19924;-70
2023/11/05 06:44:21;;;;;;;;;;;;;;;;;;5074019;28;19922;-70
2023/11/05 06:46:46;;;;;;;;;;;;;;;;;;5073680;28;19915;-70
2023/11/05 06:49:11;;;;;;;;;;;;;;;;;;5075075;28;20386;-70
2023/11/05 06:51:37;;;;;;;;;;;;;;;;;;5074833;28;21004;-71
2023/11/05 06:54:02;;;;;;;;;;;;;;;;;;5074749;28;20528;-70
2023/11/05 06:56:27;;;;;;;;;;;;;;;;;;5074417;28;19922;-70
2023/11/05 06:58:53;;;;;;;;;;;;;;;;;;5076036;28;19925;-70
2023/11/05 07:01:18;;;;;;;;;;;;;;;;;;5088854;28;19947;-70
2023/11/05 07:03:44;;;;;;;;;;;;;;;;;;5072239;28;19919;-70
2023/11/05 07:06:09;;;;;;;;;;;;;;;;;;5090076;28;19925;-70
2023/11/05 07:08:35;;;;;;;;;;;;;;;;;;5074528;28;20270;-72
2023/11/05 07:11:00;;;;;;;;;;;;;;;;;;5073621;28;19951;-70
2023/11/05 07:13:26;;;;;;;;;;;;;;;;;;5071680;28;19963;-70
2023/11/05 07:15:51;;;;;;;;;;;;;;;;;;5058818;28;19920;-70
2023/11/05 07:18:17;;;;;;;;;;;;;;;;;;5072937;28;19919;-70
2023/11/05 07:20:42;;;;;;;;;;;;;;;;;;5087805;28;20617;-70
2023/11/05 07:23:08;;;;;;;;;;;;;;;;;;5074021;28;19926;-71
2023/11/05 07:25:33;;;;;;;;;;;;;;;;;;5090161;28;20431;-71
2023/11/05 07:27:59;;;;;;;;;;;;;;;;;;5089590;28;19920;-70
2023/11/05 07:30:24;;;;;;;;;;;;;;;;;;5089525;28;20013;-70
2023/11/05 07:32:50;;;;;;;;;;;;;;;;;;5090137;28;20439;-70
2023/11/05 07:35:18;;;;;;;;;;;;;;;;;;5089761;28;20461;-72
2023/11/05 07:37:43;;;;;;;;;;;;;;;;;;5088255;27;19927;-71
2023/11/05 07:40:11;;;;;;;;;;;;;;;;;;5089020;28;19954;-71
2023/11/05 07:42:36;;;;;;;;;;;;;;;;;;5064789;28;19939;-71
2023/11/05 07:45:02;;;;;;;;;;;;;;;;;;5037279;28;19916;-71
2023/11/05 07:47:27;;;;;;;;;;;;;;;;;;5068471;28;19967;-72
2023/11/05 07:49:52;;;;;;;;;;;;;;;;;;5052206;28;19920;-72
2023/11/05 07:52:18;;;;;;;;;;;;;;;;;;5069862;28;19920;-71
2023/11/05 07:54:44;;;;;;;;;;;;;;;;;;5054269;28;19927;-71
2023/11/05 07:57:10;;;;;;;;;;;;;;;;;;5068939;28;19920;-71
2023/11/05 07:59:35;;;;;;;;;;;;;;;;;;5067294;28;19920;-71
2023/11/05 08:02:00;;;;;;;;;;;;;;;;;;5032395;28;19924;-71
2023/11/05 08:04:26;;;;;;;;;;;;;;;;;;5066098;28;20375;-70
2023/11/05 08:06:51;;;;;;;;;;;;;;;;;;5070013;28;20532;-71
2023/11/05 08:09:17;;;;;;;;;;;;;;;;;;5055002;28;19942;-71
2023/11/05 08:11:45;;;;;;;;;;;;;;;;;;5048997;28;20434;-71
2023/11/05 08:14:10;;;;;;;;;;;;;;;;;;5065196;28;19938;-70
2023/11/05 08:16:37;;;;;;;;;;;;;;;;;;5067644;28;21232;-70
2023/11/05 08:19:02;;;;;;;;;;;;;;;;;;5047711;28;20530;-70
2023/11/05 08:21:28;;;;;;;;;;;;;;;;;;5052056;28;19920;-70
2023/11/05 08:23:57;;;;;;;;;;;;;;;;;;5068647;28;19924;-71
2023/11/05 08:26:22;;;;;;;;;;;;;;;;;;5052103;28;19916;-70
2023/11/05 08:28:47;;;;;;;;;;;;;;;;;;5035449;28;19927;-70
2023/11/05 08:31:13;;;;;;;;;;;;;;;;;;5053671;28;19921;-71
2023/11/05 08:33:41;;;;;;;;;;;;;;;;;;5053671;28;20065;-70
2023/11/05 08:36:10;;;;;;;;;;;;;;;;;;5036977;28;19916;-70
2023/11/05 08:38:35;;;;;;;;;;;;;;;;;;5053025;28;20341;-70
2023/11/05 08:41:00;;;;;;;;;;;;;;;;;;5057175;28;19966;-70
2023/11/05 08:43:28;;;;;;;;;;;;;;;;;;5053307;28;20023;-70
2023/11/05 08:45:54;;;;;;;;;;;;;;;;;;5055049;28;19920;-70
2023/11/05 08:48:19;;;;;;;;;;;;;;;;;;5071423;28;19920;-70
2023/11/05 08:50:44;;;;;;;;;;;;;;;;;;5062163;28;19916;-70
2023/11/05 08:53:10;;;;;;;;;;;;;;;;;;5046408;28;19999;-70
2023/11/05 08:55:35;;;;;;;;;;;;;;;;;;5055660;28;19920;-69
2023/11/05 08:58:01;;;;;;;;;;;;;;;;;;5069672;28;20043;-70
2023/11/05 09:00:28;;;;;;;;;;;;;;;;;;5042565;28;20412;-70
2023/11/05 09:02:53;;;;;;;;;;;;;;;;;;5052917;28;19916;-70
2023/11/05 09:05:22;;;;;;;;;;;;;;;;;;5038815;28;19923;-70
2023/11/05 09:07:48;;;;;;;;;;;;;;;;;;5070795;28;20718;-70
2023/11/05 09:10:15;;;;;;;;;;;;;;;;;;5056078;28;19920;-70
2023/11/05 09:12:40;;;;;;;;;;;;;;;;;;5054635;28;19923;-70
2023/11/05 09:15:07;;;;;;;;;;;;;;;;;;5070847;28;19917;-70
2023/11/05 09:17:32;;;;;;;;;;;;;;;;;;5030671;28;19916;-70
2023/11/05 09:19:58;;;;;;;;;;;;;;;;;;5046038;28;20249;-71
2023/11/05 09:22:23;;;;;;;;;;;;;;;;;;5048162;28;20466;-70
2023/11/05 09:24:48;;;;;;;;;;;;;;;;;;5050972;28;19927;-70
2023/11/05 09:27:14;;;;;;;;;;;;;;;;;;5055767;28;19961;-71
2023/11/05 09:29:39;;;;;;;;;;;;;;;;;;5053483;28;19936;-70
2023/11/05 09:32:05;;;;;;;;;;;;;;;;;;5068150;28;19964;-70
2023/11/05 09:34:31;;;;;;;;;;;;;;;;;;5051891;28;19916;-71
2023/11/05 09:40:13;;;;;;;;;;;;;;;;;;5069414;28;19970;-70
2023/11/05 09:42:38;;;;;;;;;;;;;;;;;;5047407;28;19928;-72
2023/11/05 09:45:03;;;;;;;;;;;;;;;;;;5054542;28;20001;-71
2023/11/05 09:47:29;;;;;;;;;;;;;;;;;;5071501;28;19916;-71
2023/11/05 09:49:54;;;;;;;;;;;;;;;;;;5072565;28;19912;-71
2023/11/05 09:52:21;;;;;;;;;;;;;;;;;;5069435;28;20021;-70
2023/11/05 09:54:47;;;;;;;;;;;;;;;;;;5071587;28;19923;-70
2023/11/05 09:57:12;;;;;;;;;;;;;;;;;;5070229;28;19920;-71
2023/11/05 09:59:37;;;;;;;;;;;;;;;;;;5069978;28;20519;-72
2023/11/05 10:02:03;;;;;;;;;;;;;;;;;;5070778;28;19916;-71
2023/11/05 10:04:29;;;;;;;;;;;;;;;;;;5072618;28;20006;-71
2023/11/05 10:06:54;;;;;;;;;;;;;;;;;;5072955;28;20322;-71
2023/11/05 10:09:30;;;;;;;;;;;;;;;;;;5066696;28;19934;-71
2023/11/05 10:11:55;;;;;;;;;;;;;;;;;;5070963;28;19923;-71
2023/11/05 10:14:21;;;;;;;;;;;;;;;;;;5084653;28;19920;-71
2023/11/05 10:16:47;;;;;;;;;;;;;;;;;;5069165;28;20279;-72
2023/11/05 10:19:13;;;;;;;;;;;;;;;;;;5053300;28;19916;-71
2023/11/05 10:21:38;;;;;;;;;;;;;;;;;;5071232;28;20414;-71
2023/11/05 10:24:04;;;;;;;;;;;;;;;;;;5070698;28;19924;-72
2023/11/05 10:26:29;;;;;;;;;;;;;;;;;;5068927;28;20178;-72
2023/11/05 10:28:55;;;;;;;;;;;;;;;;;;5059921;28;21508;-72
2023/11/05 10:31:20;;;;;;;;;;;;;;;;;;5069469;28;20113;-69
2023/11/05 10:33:45;;;;;;;;;;;;;;;;;;5073449;28;19916;-71
2023/11/05 10:36:10;;;;;;;;;;;;;;;;;;5070140;28;19950;-70
2023/11/05 10:38:36;;;;;;;;;;;;;;;;;;5066192;28;19942;-70
2023/11/05 10:41:01;;;;;;;;;;;;;;;;;;5053159;28;20409;-69
2023/11/05 10:43:27;;;;;;;;;;;;;;;;;;5092067;28;20311;-70
2023/11/05 10:45:52;;;;;;;;;;;;;;;;;;5059385;28;19938;-69
2023/11/05 10:48:17;;;;;;;;;;;;;;;;;;5076280;28;19939;-69
2023/11/05 10:50:43;;;;;;;;;;;;;;;;;;5072872;28;19920;-70
2023/11/05 10:53:08;;;;;;;;;;;;;;;;;;5073530;28;20036;-67
2023/11/05 10:55:33;;;;;;;;;;;;;;;;;;5087259;28;19924;-69
2023/11/05 10:57:59;;;;;;;;;;;;;;;;;;5073844;28;19924;-68
2023/11/05 11:00:27;;;;;;;;;;;;;;;;;;5057984;28;19912;-69
2023/11/05 11:02:53;;;;;;;;;;;;;;;;;;5075937;28;19920;-68
2023/11/05 11:05:18;;;;;;;;;;;;;;;;;;5090975;28;19916;-68
2023/11/05 11:07:43;;;;;;;;;;;;;;;;;;5070952;28;20395;-69
2023/11/05 11:10:09;;;;;;;;;;;;;;;;;;5090961;28;19918;-69
2023/11/05 11:12:34;;;;;;;;;;;;;;;;;;5058944;28;19920;-69
2023/11/05 11:14:59;;;;;;;;;;;;;;;;;;5069445;28;20026;-69
2023/11/05 11:17:27;;;;;;;;;;;;;;;;;;5074907;28;20054;-70
2023/11/05 11:19:52;;;;;;;;;;;;;;;;;;5088682;28;19927;-71
2023/11/05 11:22:20;;;;;;;;;;;;;;;;;;5070270;28;19939;-71
2023/11/05 11:24:46;;;;;;;;;;;;;;;;;;5072791;28;20337;-70
2023/11/05 11:27:11;;;;;;;;;;;;;;;;;;5065952;28;19927;-70
2023/11/05 11:29:41;;;;;;;;;;;;;;;;;;5070171;28;19947;-70
2023/11/05 11:32:06;;;;;;;;;;;;;;;;;;5088111;28;19912;-68
2023/11/05 11:34:32;;;;;;;;;;;;;;;;;;5086405;28;20365;-69
2023/11/05 11:36:58;;;;;;;;;;;;;;;;;;5072787;28;19916;-70
2023/11/05 11:39:23;;;;;;;;;;;;;;;;;;5074182;28;19916;-70
2023/11/05 11:41:51;;;;;;;;;;;;;;;;;;5065402;28;20003;-70
2023/11/05 11:44:20;;;;;;;;;;;;;;;;;;5054906;28;19955;-69
2023/11/05 11:46:47;;;;;;;;;;;;;;;;;;5084234;28;19912;-69
2023/11/05 11:49:13;;;;;;;;;;;;;;;;;;5049452;28;19927;-70
2023/11/05 11:51:38;;;;;;;;;;;;;;;;;;5070228;28;19920;-70
2023/11/05 11:54:03;;;;;;;;;;;;;;;;;;5051594;28;19923;-68
2023/11/05 11:56:29;;;;;;;;;;;;;;;;;;5066172;28;19920;-70
2023/11/05 11:58:57;;;;;;;;;;;;;;;;;;5069291;28;20007;-71
2023/11/05 12:01:22;;;;;;;;;;;;;;;;;;5068814;28;19920;-71
2023/11/05 12:03:48;;;;;;;;;;;;;;;;;;5072211;28;19931;-69
2023/11/05 12:06:15;;;;;;;;;;;;;;;;;;5081775;28;19920;-70
2023/11/05 12:08:41;;;;;;;;;;;;;;;;;;5051419;28;19942;-70
2023/11/05 12:11:06;;;;;;;;;;;;;;;;;;5068347;28;20484;-70
2023/11/05 12:13:34;;;;;;;;;;;;;;;;;;5066069;28;19920;-70
2023/11/05 12:15:59;;;;;;;;;;;;;;;;;;5071849;28;19923;-70
2023/11/05 12:18:25;;;;;;;;;;;;;;;;;;5071541;28;20031;-70
2023/11/05 12:20:50;;;;;;;;;;;;;;;;;;5049186;28;20980;-70
2023/11/05 12:23:15;;;;;;;;;;;;;;;;;;5066037;28;19983;-70
2023/11/05 12:25:41;;;;;;;;;;;;;;;;;;5069791;28;21513;-69
2023/11/05 12:28:09;;;;;;;;;;;;;;;;;;5069547;28;19916;-69
2023/11/05 12:30:37;;;;;;;;;;;;;;;;;;5051779;28;20686;-70
2023/11/05 12:33:02;;;;;;;;;;;;;;;;;;5071593;28;21398;-69
2023/11/05 12:35:27;;;;;;;;;;;;;;;;;;5065666;28;19928;-69
2023/11/05 12:37:52;;;;;;;;;;;;;;;;;;5053211;28;19974;-71
2023/11/05 12:40:21;;;;;;;;;;;;;;;;;;5074082;28;20055;-70
2023/11/05 12:42:48;;;;;;;;;;;;;;;;;;5070787;28;19928;-70
2023/11/05 12:45:14;;;;;;;;;;;;;;;;;;5074212;28;19969;-72
2023/11/05 12:47:43;;;;;;;;;;;;;;;;;;5046521;28;20555;-72
2023/11/05 12:50:08;;;;;;;;;;;;;;;;;;5071560;28;19921;-71
2023/11/05 12:52:34;;;;;;;;;;;;;;;;;;5066917;28;20393;-72
2023/11/05 12:54:59;;;;;;;;;;;;;;;;;;5055022;28;19962;-70
2023/11/05 12:57:25;;;;;;;;;;;;;;;;;;5072311;28;19916;-70
2023/11/05 12:59:50;;;;;;;;;;;;;;;;;;5072041;28;19926;-70
2023/11/05 13:02:15;;;;;;;;;;;;;;;;;;5069875;28;20007;-71
2023/11/05 13:04:40;;;;;;;;;;;;;;;;;;5071620;28;20135;-71
2023/11/05 13:07:07;;;;;;;;;;;;;;;;;;5054265;28;19923;-72
2023/11/05 13:09:35;;;;;;;;;;;;;;;;;;5055312;28;20010;-72
2023/11/05 13:12:00;;;;;;;;;;;;;;;;;;5048278;28;19920;-72
2023/11/05 13:14:25;;;;;;;;;;;;;;;;;;5070606;28;19923;-71
2023/11/05 13:16:51;;;;;;;;;;;;;;;;;;5072557;28;19976;-71
2023/11/05 13:19:16;;;;;;;;;;;;;;;;;;5069567;28;19919;-71
2023/11/05 13:21:41;;;;;;;;;;;;;;;;;;5068749;28;19916;-72
2023/11/05 13:24:07;;;;;;;;;;;;;;;;;;5051278;28;19927;-70
2023/11/05 13:26:32;;;;;;;;;;;;;;;;;;5070020;28;20478;-72
2023/11/05 13:28:57;;;;;;;;;;;;;;;;;;5066113;28;19916;-72
2023/11/05 13:31:26;;;;;;;;;;;;;;;;;;5058379;28;19916;-72
2023/11/05 13:33:51;;;;;;;;;;;;;;;;;;5065982;28;19920;-72
2023/11/05 13:36:17;;;;;;;;;;;;;;;;;;5067424;28;20002;-71
2023/11/05 13:38:42;;;;;;;;;;;;;;;;;;5050203;28;19920;-70
2023/11/05 13:41:07;;;;;;;;;;;;;;;;;;5068555;28;20003;-70
2023/11/05 13:43:33;;;;;;;;;;;;;;;;;;5089783;27;20559;-70
2023/11/05 13:45:59;;;;;;;;;;;;;;;;;;5096469;27;20659;-72
2023/11/05 13:48:24;;;;;;;;;;;;;;;;;;5097324;27;19920;-72
2023/11/05 13:50:50;;;;;;;;;;;;;;;;;;5095180;27;19927;-70
2023/11/05 13:53:16;;;;;;;;;;;;;;;;;;5077418;27;19927;-71
2023/11/05 13:55:41;;;;;;;;;;;;;;;;;;5074602;27;19920;-69
2023/11/05 13:58:07;;;;;;;;;;;;;;;;;;5074121;28;20122;-72
2023/11/05 14:00:32;;;;;;;;;;;;;;;;;;5078724;28;19920;-70
2023/11/05 14:02:57;;;;;;;;;;;;;;;;;;5077763;27;20429;-70
2023/11/05 14:05:23;;;;;;;;;;;;;;;;;;5098620;27;21510;-71
2023/11/05 14:07:48;;;;;;;;;;;;;;;;;;5098481;27;20377;-69
2023/11/05 14:10:14;;;;;;;;;;;;;;;;;;5078113;27;19916;-70
2023/11/05 14:12:40;;;;;;;;;;;;;;;;;;5098265;27;20067;-71
2023/11/05 14:15:06;;;;;;;;;;;;;;;;;;5076771;28;20355;-69
2023/11/05 14:17:34;;;;;;;;;;;;;;;;;;5060560;27;19970;-71
2023/11/05 14:19:59;;;;;;;;;;;;;;;;;;5096206;27;21602;-71
2023/11/05 14:22:24;;;;;;;;;;;;;;;;;;5078252;28;19930;-70
2023/11/05 14:24:50;;;;;;;;;;;;;;;;;;5076917;27;20070;-70
2023/11/05 14:27:15;;;;;;;;;;;;;;;;;;5097889;27;19920;-71
2023/11/05 14:29:41;;;;;;;;;;;;;;;;;;5059115;27;19916;-68
2023/11/05 14:32:06;;;;;;;;;;;;;;;;;;5075818;27;20367;-70
2023/11/05 14:34:31;;;;;;;;;;;;;;;;;;5097715;27;20393;-69
2023/11/05 14:36:59;;;;;;;;;;;;;;;;;;5076088;27;19920;-70
2023/11/05 14:39:24;;;;;;;;;;;;;;;;;;5096384;27;20034;-70
2023/11/05 14:41:53;;;;;;;;;;;;;;;;;;5094543;27;19924;-71
2023/11/05 14:44:21;;;;;;;;;;;;;;;;;;5075685;27;20377;-68
2023/11/05 14:46:46;;;;;;;;;;;;;;;;;;5060451;28;19966;-71
2023/11/05 14:49:12;;;;;;;;;;;;;;;;;;5077130;27;19915;-70
2023/11/05 14:51:37;;;;;;;;;;;;;;;;;;5091768;27;19919;-71
2023/11/05 14:54:03;;;;;;;;;;;;;;;;;;5095554;27;19959;-70
2023/11/05 14:56:29;;;;;;;;;;;;;;;;;;5072155;28;19919;-70
2023/11/05 14:58:54;;;;;;;;;;;;;;;;;;5096576;27;20295;-71
2023/11/05 15:01:19;;;;;;;;;;;;;;;;;;5055971;27;19951;-70
2023/11/05 15:09:52;;;;;;;;;;;;;;;;;;5095884;27;19926;-70
2023/11/05 15:12:17;;;;;;;;;;;;;;;;;;5058677;27;19919;-70
2023/11/05 15:14:43;;;;;;;;;;;;;;;;;;5094804;27;19916;-69
2023/11/05 15:17:09;;;;;;;;;;;;;;;;;;5078129;27;19979;-70
2023/11/05 15:19:34;;;;;;;;;;;;;;;;;;5075236;27;20306;-70
2023/11/05 15:22:02;;;;;;;;;;;;;;;;;;5059670;28;19919;-70
2023/11/05 15:24:27;;;;;;;;;;;;;;;;;;5098051;27;20397;-70
2023/11/05 15:26:53;;;;;;;;;;;;;;;;;;5074902;28;20019;-70
2023/11/05 15:29:33;;;;;;;;;;;;;;;;;;5059941;27;19915;-70
2023/11/05 15:32:04;;;;;;;;;;;;;;;;;;5075824;28;19915;-70
2023/11/05 15:34:30;;;;;;;;;;;;;;;;;;5074000;28;20271;-70
2023/11/05 15:36:55;;;;;;;;;;;;;;;;;;5095178;27;19920;-71
2023/11/05 15:39:20;;;;;;;;;;;;;;;;;;5075516;28;20070;-71
2023/11/05 15:41:46;;;;;;;;;;;;;;;;;;5052966;28;19927;-71
2023/11/05 15:44:11;;;;;;;;;;;;;;;;;;5048710;28;20268;-71
2023/11/05 15:46:36;;;;;;;;;;;;;;;;;;5051968;28;19931;-69
2023/11/05 15:49:03;;;;;;;;;;;;;;;;;;5068612;28;19916;-69
2023/11/05 15:51:29;;;;;;;;;;;;;;;;;;5070675;28;19920;-70
2023/11/05 15:53:55;;;;;;;;;;;;;;;;;;5050333;28;20387;-68
2023/11/05 15:56:20;;;;;;;;;;;;;;;;;;5067712;28;19935;-70
2023/11/05 15:58:46;;;;;;;;;;;;;;;;;;5069085;28;19922;-68
2023/11/05 16:01:12;;;;;;;;;;;;;;;;;;5071428;28;19935;-69
2023/11/05 16:03:40;;;;;;;;;;;;;;;;;;5072697;28;19920;-70
2023/11/05 16:06:05;;;;;;;;;;;;;;;;;;5049315;28;20606;-70
2023/11/05 16:08:33;;;;;;;;;;;;;;;;;;5070780;28;21795;-69
2023/11/05 16:11:05;;;;;;;;;;;;;;;;;;5069288;28;19924;-70
2023/11/05 16:13:30;;;;;;;;;;;;;;;;;;5068411;28;19916;-69
2023/11/05 16:15:56;;;;;;;;;;;;;;;;;;5070910;28;19923;-69
2023/11/05 16:18:21;;;;;;;;;;;;;;;;;;5070655;28;19923;-70
2023/11/05 16:20:46;;;;;;;;;;;;;;;;;;5073983;28;19931;-69
2023/11/05 16:23:12;;;;;;;;;;;;;;;;;;5067100;28;19927;-70
2023/11/05 16:25:37;;;;;;;;;;;;;;;;;;5070952;28;19919;-70
2023/11/05 16:28:03;;;;;;;;;;;;;;;;;;5082606;28;20529;-69
2023/11/05 16:30:28;;;;;;;;;;;;;;;;;;5052718;28;20718;-69
2023/11/05 16:32:56;;;;;;;;;;;;;;;;;;5067685;28;20029;-70
2023/11/05 16:38:38;;;;;;;;;;;;;;;;;;5066206;28;19924;-72
2023/11/05 16:41:04;;;;;;;;;;;;;;;;;;5068335;28;21453;-71
2023/11/05 16:43:29;;;;;;;;;;;;;;;;;;5066293;28;20052;-70
2023/11/05 16:45:54;;;;;;;;;;;;;;;;;;5074415;28;20361;-71
2023/11/05 16:48:20;;;;;;;;;;;;;;;;;;5071655;28;19973;-71
2023/11/05 16:50:45;;;;;;;;;;;;;;;;;;5065978;28;21933;-70